createdAt,value
2022-09-07T00:00:53.008Z,25.10
2022-09-07T00:03:21.169Z,25.20
2022-09-07T00:05:50.761Z,25.10
2022-09-07T00:08:21.955Z,25.10
2022-09-07T00:11:01.654Z,25.10
2022-09-07T00:13:32.278Z,25.10
2022-09-07T00:16:07.494Z,25.10
2022-09-07T00:18:35.223Z,25.10
2022-09-07T00:21:06.022Z,25.10
2022-09-07T00:23:34.999Z,25.20
2022-09-07T00:26:09.255Z,25.10
2022-09-07T00:28:37.532Z,25.10
2022-09-07T00:31:09.898Z,25.10
2022-09-07T00:33:37.130Z,25.20
2022-09-07T00:36:05.170Z,25.10
2022-09-07T00:38:32.391Z,25.20
2022-09-07T00:40:59.945Z,25.20
2022-09-07T00:43:40.702Z,25.10
2022-09-07T00:46:18.451Z,25.20
2022-09-07T00:49:09.237Z,25.20
2022-09-07T00:51:54.364Z,25.20
2022-09-07T00:54:33.465Z,25.20
2022-09-07T00:57:01.340Z,25.20
2022-09-07T00:59:34.349Z,25.20
2022-09-07T01:02:02.476Z,25.20
2022-09-07T01:04:31.249Z,25.20
2022-09-07T01:06:59.285Z,25.20
2022-09-07T01:09:28.211Z,25.20
2022-09-07T01:11:59.226Z,25.10
2022-09-07T01:14:30.394Z,25.10
2022-09-07T01:17:32.707Z,25.10
2022-09-07T01:20:28.880Z,25.10
2022-09-07T01:23:35.727Z,25.20
2022-09-07T01:26:43.965Z,25.10
2022-09-07T01:29:41.119Z,25.10
2022-09-07T01:32:34.399Z,25.10
2022-09-07T01:35:03.624Z,25.10
2022-09-07T01:37:43.256Z,25.10
2022-09-07T01:40:19.914Z,25.10
2022-09-07T01:43:00.376Z,25.10
2022-09-07T01:45:32.471Z,25.10
2022-09-07T01:48:04.888Z,25.10
2022-09-07T01:50:51.633Z,25.10
2022-09-07T01:53:33.940Z,25.10
2022-09-07T01:56:15.943Z,25.10
2022-09-07T01:58:52.737Z,25.10
2022-09-07T02:01:33.501Z,25.10
2022-09-07T02:04:08.097Z,25.10
2022-09-07T02:06:47.102Z,25.10
2022-09-07T02:09:43.605Z,25.10
2022-09-07T02:12:24.281Z,25.10
2022-09-07T02:14:59.677Z,25.10
2022-09-07T02:17:34.228Z,25.10
2022-09-07T02:20:17.097Z,25.10
2022-09-07T02:22:48.687Z,25.10
2022-09-07T02:25:24.403Z,25.10
2022-09-07T02:27:55.733Z,25.10
2022-09-07T02:30:23.095Z,25.10
2022-09-07T02:32:51.256Z,25.10
2022-09-07T02:35:18.671Z,25.10
2022-09-07T02:37:47.224Z,25.10
2022-09-07T02:40:15.009Z,25.10
2022-09-07T02:42:43.479Z,25.10
2022-09-07T02:45:13.750Z,25.10
2022-09-07T02:48:10.267Z,25.10
2022-09-07T02:51:02.975Z,25.10
2022-09-07T02:54:04.408Z,25.10
2022-09-07T02:57:04.886Z,25.10
2022-09-07T03:00:07.590Z,25.10
2022-09-07T03:03:12.437Z,25.10
2022-09-07T03:05:48.791Z,25.10
2022-09-07T03:08:37.985Z,25.10
2022-09-07T03:11:06.279Z,25.10
2022-09-07T03:13:34.368Z,25.10
2022-09-07T03:16:01.842Z,25.10
2022-09-07T03:18:29.394Z,25.10
2022-09-07T03:20:56.887Z,25.10
2022-09-07T03:23:24.359Z,25.10
2022-09-07T03:25:51.821Z,25.10
2022-09-07T03:28:19.215Z,25.10
2022-09-07T03:30:50.008Z,25.10
2022-09-07T03:33:17.685Z,25.10
2022-09-07T03:35:46.014Z,25.10
2022-09-07T03:38:13.263Z,25.10
2022-09-07T03:40:40.592Z,25.10
2022-09-07T03:43:07.742Z,25.10
2022-09-07T03:45:35.248Z,25.10
2022-09-07T03:48:02.531Z,25.10
2022-09-07T03:50:29.650Z,25.10
2022-09-07T03:52:57.912Z,25.10
2022-09-07T03:55:25.063Z,25.10
2022-09-07T03:57:52.341Z,25.10
2022-09-07T04:00:19.640Z,25.10
2022-09-07T04:02:46.872Z,25.10
2022-09-07T04:05:15.109Z,25.10
2022-09-07T04:07:42.258Z,25.10
2022-09-07T04:10:09.656Z,25.10
2022-09-07T04:12:36.809Z,25.10
2022-09-07T04:15:04.083Z,25.10
2022-09-07T04:17:31.290Z,25.10
2022-09-07T04:19:58.414Z,25.10
2022-09-07T04:22:25.497Z,25.10
2022-09-07T04:24:52.634Z,25.10
2022-09-07T04:27:19.808Z,25.10
2022-09-07T04:29:48.111Z,25.10
2022-09-07T04:32:16.084Z,25.10
2022-09-07T04:34:43.331Z,25.10
2022-09-07T04:37:10.540Z,25.10
2022-09-07T04:39:37.821Z,25.10
2022-09-07T04:42:05.997Z,25.10
2022-09-07T04:44:33.203Z,25.10
2022-09-07T04:47:00.478Z,25.10
2022-09-07T04:49:27.595Z,25.10
2022-09-07T04:51:54.762Z,25.10
2022-09-07T04:54:22.219Z,25.10
2022-09-07T04:56:49.335Z,25.10
2022-09-07T04:59:16.456Z,25.10
2022-09-07T05:01:43.680Z,25.10
2022-09-07T05:04:10.918Z,25.10
2022-09-07T05:06:38.915Z,25.10
2022-09-07T05:09:06.244Z,25.10
2022-09-07T05:11:33.438Z,25.10
2022-09-07T05:14:02.791Z,25.10
2022-09-07T05:16:31.755Z,24.90
2022-09-07T05:19:01.794Z,24.80
2022-09-07T05:21:34.090Z,24.60
2022-09-07T05:24:02.316Z,24.30
2022-09-07T05:26:32.957Z,24.00
2022-09-07T05:31:50.194Z,23.30
2022-09-07T05:34:33.217Z,22.90
2022-09-07T05:37:02.010Z,22.50
2022-09-07T05:39:29.589Z,22.10
2022-09-07T05:41:57.009Z,21.70
2022-09-07T05:47:13.078Z,21.20
2022-09-07T05:49:40.738Z,20.90
2022-09-07T05:52:07.967Z,20.60
2022-09-07T05:54:35.228Z,20.50
2022-09-07T05:57:03.785Z,20.30
2022-09-07T05:59:31.847Z,20.20
2022-09-07T06:01:59.245Z,20.10
2022-09-07T06:04:26.624Z,20.00
2022-09-07T06:12:28.895Z,19.60
2022-09-07T06:14:56.129Z,19.50
2022-09-07T06:17:23.343Z,19.40
2022-09-07T06:19:51.593Z,19.40
2022-09-07T06:22:18.713Z,19.30
2022-09-07T06:24:45.839Z,19.20
2022-09-07T06:27:13.044Z,19.20
2022-09-07T06:29:40.245Z,19.20
2022-09-07T06:34:55.045Z,19.10
2022-09-07T06:37:22.379Z,19.10
2022-09-07T06:39:49.713Z,19.10
2022-09-07T06:42:17.081Z,19.10
2022-09-07T06:44:44.208Z,19.10
2022-09-07T06:47:11.374Z,19.00
2022-09-07T06:49:38.528Z,19.00
2022-09-07T06:52:05.753Z,18.90
2022-09-07T06:57:20.506Z,18.90
2022-09-07T06:59:47.718Z,18.80
2022-09-07T07:02:15.200Z,18.80
2022-09-07T07:04:42.668Z,18.80
2022-09-07T07:07:14.212Z,18.80
2022-09-07T07:09:41.982Z,18.70
2022-09-07T07:12:10.638Z,18.60
2022-09-07T07:14:40.943Z,18.50
2022-09-07T07:17:08.556Z,18.60
2022-09-07T07:19:35.714Z,18.60
2022-09-07T07:22:18.814Z,18.60
2022-09-07T07:24:51.000Z,18.70
2022-09-07T07:27:18.190Z,18.70
2022-09-07T07:29:45.971Z,18.80
2022-09-07T07:32:13.198Z,18.80
2022-09-07T07:34:40.364Z,18.80
2022-09-07T07:37:08.578Z,18.70
2022-09-07T07:42:22.802Z,18.80
2022-09-07T07:47:38.924Z,18.80
2022-09-07T07:55:43.940Z,18.80
2022-09-07T07:58:11.819Z,18.90
2022-09-07T08:00:53.784Z,18.90
2022-09-07T08:03:23.413Z,18.90
2022-09-07T08:05:50.858Z,18.90
2022-09-07T08:08:21.473Z,19.00
2022-09-07T08:10:48.516Z,19.00
2022-09-07T08:13:16.872Z,19.10
2022-09-07T08:15:47.334Z,19.10
2022-09-07T08:18:16.310Z,19.10
2022-09-07T08:20:43.810Z,19.10
2022-09-07T08:23:11.865Z,19.20
2022-09-07T08:25:39.337Z,19.10
2022-09-07T08:28:06.705Z,19.20
2022-09-07T08:30:34.418Z,19.20
2022-09-07T08:33:01.532Z,19.20
2022-09-07T08:35:28.665Z,19.20
2022-09-07T08:37:55.716Z,19.20
2022-09-07T08:40:22.978Z,19.20
2022-09-07T08:43:20.980Z,19.30
2022-09-07T08:45:54.783Z,19.20
2022-09-07T08:48:31.254Z,19.20
2022-09-07T08:51:07.031Z,19.20
2022-09-07T08:53:40.581Z,19.20
2022-09-07T08:56:13.793Z,19.20
2022-09-07T08:58:50.312Z,19.30
2022-09-07T09:01:36.504Z,19.30
2022-09-07T09:04:17.872Z,19.30
2022-09-07T09:07:05.866Z,19.30
2022-09-07T09:10:13.047Z,19.30
2022-09-07T09:13:17.660Z,19.40
2022-09-07T09:16:08.527Z,19.40
2022-09-07T09:19:16.105Z,19.40
2022-09-07T09:21:44.262Z,19.40
2022-09-07T09:24:19.341Z,19.40
2022-09-07T09:26:54.239Z,19.50
2022-09-07T09:29:23.542Z,19.50
2022-09-07T09:31:50.793Z,19.50
2022-09-07T09:34:23.664Z,19.50
2022-09-07T09:36:56.290Z,19.60
2022-09-07T09:39:34.899Z,19.60
2022-09-07T09:42:16.405Z,19.70
2022-09-07T09:44:44.407Z,19.80
2022-09-07T09:47:31.389Z,19.80
2022-09-07T09:50:02.119Z,19.90
2022-09-07T09:52:41.929Z,19.80
2022-09-07T09:55:36.022Z,19.90
2022-09-07T10:01:34.656Z,19.80
2022-09-07T10:04:31.359Z,19.80
2022-09-07T10:07:08.502Z,19.80
2022-09-07T10:09:39.297Z,19.80
2022-09-07T10:12:08.751Z,19.70
2022-09-07T10:14:48.124Z,19.70
2022-09-07T10:17:47.869Z,19.60
2022-09-07T10:20:36.891Z,19.60
2022-09-07T10:23:06.460Z,19.50
2022-09-07T10:25:37.742Z,19.50
2022-09-07T10:28:17.584Z,19.50
2022-09-07T10:31:20.671Z,19.40
2022-09-07T10:34:26.723Z,19.40
2022-09-07T10:37:08.636Z,19.40
2022-09-07T10:39:39.640Z,19.40
2022-09-07T10:42:31.083Z,19.40
2022-09-07T10:45:24.186Z,19.40
2022-09-07T10:48:05.199Z,19.40
2022-09-07T10:50:52.193Z,19.50
2022-09-07T10:53:42.304Z,19.60
2022-09-07T10:56:25.984Z,19.50
2022-09-07T10:59:06.483Z,19.60
2022-09-07T11:02:01.180Z,19.60
2022-09-07T11:04:50.204Z,19.70
2022-09-07T11:07:56.971Z,19.70
2022-09-07T11:10:46.575Z,19.80
2022-09-07T11:13:18.656Z,19.80
2022-09-07T11:15:59.769Z,19.80
2022-09-07T11:18:36.499Z,19.90
2022-09-07T11:21:13.066Z,19.90
2022-09-07T11:23:45.278Z,19.90
2022-09-07T11:26:35.302Z,20.00
2022-09-07T11:29:31.366Z,20.00
2022-09-07T11:32:07.288Z,20.00
2022-09-07T11:34:41.991Z,20.00
2022-09-07T11:37:22.233Z,20.00
2022-09-07T11:40:00.590Z,20.10
2022-09-07T11:42:46.768Z,20.10
2022-09-07T11:45:28.602Z,20.10
2022-09-07T11:48:05.935Z,20.10
2022-09-07T11:50:36.984Z,20.20
2022-09-07T11:53:14.830Z,20.30
2022-09-07T11:55:46.425Z,20.30
2022-09-07T11:58:52.731Z,20.30
2022-09-07T12:01:45.498Z,20.40
2022-09-07T12:04:40.144Z,20.50
2022-09-07T12:07:44.352Z,20.50
2022-09-07T12:10:38.004Z,20.50
2022-09-07T12:13:46.048Z,20.60
2022-09-07T12:16:39.628Z,20.60
2022-09-07T12:19:25.199Z,20.70
2022-09-07T12:21:58.154Z,20.70
2022-09-07T12:24:53.274Z,20.70
2022-09-07T12:27:40.259Z,20.80
2022-09-07T12:30:47.068Z,20.80
2022-09-07T12:33:33.624Z,20.80
2022-09-07T12:36:02.265Z,20.80
2022-09-07T12:39:09.104Z,20.80
2022-09-07T12:41:47.447Z,20.80
2022-09-07T12:44:27.294Z,20.80
2022-09-07T12:46:57.864Z,20.80
2022-09-07T12:49:48.923Z,20.80
2022-09-07T12:52:53.519Z,20.80
2022-09-07T12:59:20.718Z,20.80
2022-09-07T13:02:04.732Z,20.80
2022-09-07T13:04:52.644Z,20.90
2022-09-07T13:08:08.222Z,20.90
2022-09-07T13:10:38.391Z,20.90
2022-09-07T13:13:15.822Z,20.90
2022-09-07T13:16:22.848Z,20.90
2022-09-07T13:18:50.040Z,20.90
2022-09-07T13:21:39.077Z,20.90
2022-09-07T13:24:53.073Z,21.00
2022-09-07T13:27:38.152Z,21.00
2022-09-07T13:30:36.331Z,21.00
2022-09-07T13:33:43.350Z,20.90
2022-09-07T13:36:26.271Z,20.90
2022-09-07T13:38:54.771Z,20.90
2022-09-07T13:41:35.258Z,20.90
2022-09-07T13:44:04.059Z,20.90
2022-09-07T13:47:04.991Z,20.90
2022-09-07T13:49:55.550Z,20.90
2022-09-07T13:52:31.740Z,21.00
2022-09-07T13:55:17.895Z,20.90
2022-09-07T13:58:14.759Z,20.90
2022-09-07T14:01:07.436Z,20.90
2022-09-07T14:03:52.183Z,20.90
2022-09-07T14:06:35.986Z,20.90
2022-09-07T14:09:19.167Z,20.90
2022-09-07T14:11:49.455Z,20.90
2022-09-07T14:14:23.870Z,20.90
2022-09-07T14:17:02.806Z,20.90
2022-09-07T14:19:42.966Z,20.90
2022-09-07T14:22:19.788Z,20.90
2022-09-07T14:24:52.974Z,20.90
2022-09-07T14:27:25.184Z,20.90
2022-09-07T14:29:52.699Z,20.90
2022-09-07T14:32:25.161Z,20.90
2022-09-07T14:34:52.671Z,20.90
2022-09-07T14:37:22.947Z,21.00
2022-09-07T14:39:51.454Z,20.90
2022-09-07T14:42:23.562Z,20.90
2022-09-07T14:44:56.485Z,20.90
2022-09-07T14:47:34.046Z,20.90
2022-09-07T14:50:06.356Z,20.90
2022-09-07T14:53:32.868Z,20.90
2022-09-07T14:55:38.252Z,20.90
2022-09-07T14:58:23.378Z,21.00
2022-09-07T15:03:58.978Z,21.20
2022-09-07T15:09:38.460Z,21.50
2022-09-07T15:12:27.318Z,21.60
2022-09-07T15:15:26.187Z,21.80
2022-09-07T15:18:00.667Z,22.10
2022-09-07T15:20:39.837Z,22.30
2022-09-07T15:23:12.302Z,22.50
2022-09-07T15:25:43.289Z,22.60
2022-09-07T15:34:10.130Z,23.20
2022-09-07T15:36:40.735Z,23.30
2022-09-07T15:39:14.816Z,23.50
2022-09-07T15:41:42.808Z,23.60
2022-09-07T15:44:10.050Z,23.70
2022-09-07T15:46:37.499Z,23.80
2022-09-07T15:49:05.004Z,24.00
2022-09-07T15:54:20.584Z,24.10
2022-09-07T15:59:35.594Z,24.40
2022-09-07T16:02:03.103Z,24.50
2022-09-07T16:04:30.635Z,24.60
2022-09-07T16:06:57.992Z,24.60
2022-09-07T16:09:25.592Z,24.70
2022-09-07T16:11:52.836Z,24.70
2022-09-07T16:14:20.118Z,24.80
2022-09-07T16:19:36.138Z,24.80
2022-09-07T16:22:03.843Z,24.90
2022-09-07T16:24:31.049Z,24.90
2022-09-07T16:26:58.751Z,24.90
2022-09-07T16:29:25.960Z,25.00
2022-09-07T16:34:40.543Z,25.00
2022-09-07T16:37:08.075Z,25.00
2022-09-07T16:39:35.292Z,25.10
2022-09-07T16:42:02.432Z,25.10
2022-09-07T16:44:29.552Z,25.10
2022-09-07T16:46:56.726Z,25.10
2022-09-07T16:49:23.840Z,25.20
2022-09-07T16:51:50.982Z,25.20
2022-09-07T16:54:18.361Z,25.20
2022-09-07T16:56:45.484Z,25.30
2022-09-07T16:59:20.284Z,25.30
2022-09-07T17:01:47.675Z,25.30
2022-09-07T17:04:14.819Z,25.30
2022-09-07T17:06:41.968Z,25.30
2022-09-07T17:09:09.092Z,25.40
2022-09-07T17:11:37.768Z,25.40
2022-09-07T17:14:06.753Z,25.40
2022-09-07T17:16:36.501Z,25.40
2022-09-07T17:21:53.862Z,25.40
2022-09-07T17:24:21.453Z,25.40
2022-09-07T17:26:48.847Z,25.40
2022-09-07T17:29:15.998Z,25.40
2022-09-07T17:34:30.899Z,25.40
2022-09-07T17:37:01.011Z,25.50
2022-09-07T17:39:29.059Z,25.40
2022-09-07T17:41:56.561Z,25.40
2022-09-07T17:44:23.760Z,25.40
2022-09-07T17:46:51.156Z,25.40
2022-09-07T17:49:18.534Z,25.40
2022-09-07T17:51:46.494Z,25.40
2022-09-07T17:54:16.004Z,25.50
2022-09-07T17:56:44.217Z,25.40
2022-09-07T18:01:59.568Z,25.40
2022-09-07T18:04:28.212Z,25.50
2022-09-07T18:06:55.545Z,25.50
2022-09-07T18:09:22.924Z,25.50
2022-09-07T18:11:50.915Z,25.50
2022-09-07T18:14:19.456Z,25.50
2022-09-07T18:16:49.276Z,25.50
2022-09-07T18:19:18.298Z,25.50
2022-09-07T18:21:46.453Z,25.50
2022-09-07T18:24:20.339Z,25.50
2022-09-07T18:26:50.690Z,25.60
2022-09-07T18:29:33.813Z,25.60
2022-09-07T18:32:08.294Z,25.60
2022-09-07T18:34:37.416Z,25.60
2022-09-07T18:37:04.991Z,25.60
2022-09-07T18:39:33.662Z,25.60
2022-09-07T18:42:00.896Z,25.60
2022-09-07T18:47:22.306Z,25.60
2022-09-07T18:49:51.585Z,25.60
2022-09-07T18:55:07.461Z,25.60
2022-09-07T18:57:36.125Z,25.60
2022-09-07T19:00:04.910Z,25.70
2022-09-07T19:02:32.422Z,25.70
2022-09-07T19:07:46.579Z,25.60
2022-09-07T19:10:14.775Z,25.70
2022-09-07T19:12:45.664Z,25.70
2022-09-07T19:15:13.894Z,25.70
2022-09-07T19:17:41.090Z,25.70
2022-09-07T19:20:08.735Z,25.70
2022-09-07T19:22:35.891Z,25.70
2022-09-07T19:25:03.037Z,25.70
2022-09-07T19:27:32.962Z,25.70
2022-09-07T19:30:00.175Z,25.70
2022-09-07T19:32:27.406Z,25.70
2022-09-07T19:34:55.579Z,25.70
2022-09-07T19:37:26.205Z,25.70
2022-09-07T19:39:57.026Z,25.70
2022-09-07T19:42:24.943Z,25.60
2022-09-07T19:44:53.120Z,25.60
2022-09-07T19:47:21.218Z,25.60
2022-09-07T19:49:48.233Z,25.70
2022-09-07T19:52:15.585Z,25.60
2022-09-07T19:54:42.622Z,25.60
2022-09-07T19:57:10.334Z,25.60
2022-09-07T19:59:37.359Z,25.60
2022-09-07T20:02:04.491Z,25.60
2022-09-07T20:04:31.870Z,25.60
2022-09-07T20:06:59.195Z,25.60
2022-09-07T20:09:26.313Z,25.60
2022-09-07T20:11:53.395Z,25.60
2022-09-07T20:14:20.820Z,25.60
2022-09-07T20:16:48.109Z,25.60
2022-09-07T20:19:15.367Z,25.60
2022-09-07T20:21:43.296Z,25.60
2022-09-07T20:24:14.857Z,25.60
2022-09-07T20:26:42.310Z,25.60
2022-09-07T20:31:58.734Z,25.60
2022-09-07T20:34:27.138Z,25.60
2022-09-07T20:36:54.834Z,25.60
2022-09-07T20:39:22.107Z,25.60
2022-09-07T20:41:49.278Z,25.50
2022-09-07T20:44:16.764Z,25.60
2022-09-07T20:46:44.477Z,25.60
2022-09-07T20:49:11.687Z,25.60
2022-09-07T20:51:39.048Z,25.60
2022-09-07T20:54:07.251Z,25.60
2022-09-07T20:56:35.205Z,25.50
2022-09-07T20:59:03.880Z,25.60
2022-09-07T21:01:32.537Z,25.60
2022-09-07T21:04:00.902Z,25.60
2022-09-07T21:06:30.948Z,25.60
2022-09-07T21:08:58.937Z,25.60
2022-09-07T21:11:34.485Z,25.60
2022-09-07T21:14:06.326Z,25.60
2022-09-07T21:16:34.517Z,25.60
2022-09-07T21:19:02.970Z,25.60
2022-09-07T21:21:38.929Z,25.50
2022-09-07T21:24:12.716Z,25.50
2022-09-07T21:26:39.788Z,25.60
2022-09-07T21:29:06.816Z,25.50
2022-09-07T21:31:34.309Z,25.60
2022-09-07T21:34:02.435Z,25.60
2022-09-07T21:36:30.065Z,25.60
2022-09-07T21:38:57.257Z,25.50
2022-09-07T21:41:25.745Z,25.60
2022-09-07T21:43:56.859Z,25.60
2022-09-07T21:46:24.285Z,25.50
2022-09-07T21:48:51.421Z,25.50
2022-09-07T21:51:18.618Z,25.60
2022-09-07T21:53:45.726Z,25.50
2022-09-07T21:56:14.646Z,25.50
2022-09-07T21:58:41.890Z,25.50
2022-09-07T22:01:18.087Z,25.50
2022-09-07T22:03:47.481Z,25.50
2022-09-07T22:06:15.511Z,25.50
2022-09-07T22:08:43.015Z,25.50
2022-09-07T22:11:13.503Z,25.50
2022-09-07T22:13:41.223Z,25.50
2022-09-07T22:16:08.863Z,25.50
2022-09-07T22:18:38.026Z,25.50
2022-09-07T22:21:18.065Z,25.50
2022-09-07T22:23:47.692Z,25.50
2022-09-07T22:26:17.507Z,25.50
2022-09-07T22:28:44.583Z,25.50
2022-09-07T22:31:21.430Z,25.50
2022-09-07T22:33:50.585Z,25.50
2022-09-07T22:36:20.912Z,25.50
2022-09-07T22:38:50.416Z,25.50
2022-09-07T22:41:20.714Z,25.50
2022-09-07T22:43:51.076Z,25.50
2022-09-07T22:46:20.360Z,25.40
2022-09-07T22:48:47.931Z,25.50
2022-09-07T22:51:15.229Z,25.50
2022-09-07T22:53:44.403Z,25.50
2022-09-07T22:56:17.270Z,25.50
2022-09-07T22:58:53.899Z,25.50
2022-09-07T23:01:22.027Z,25.40
2022-09-07T23:03:49.750Z,25.50
2022-09-07T23:06:29.329Z,25.50
2022-09-07T23:08:58.191Z,25.40
2022-09-07T23:11:26.214Z,25.50
2022-09-07T23:13:55.974Z,25.40
2022-09-07T23:16:23.760Z,25.50
2022-09-07T23:18:51.953Z,25.50
2022-09-07T23:21:19.587Z,25.40
2022-09-07T23:23:56.040Z,25.50
2022-09-07T23:26:24.835Z,25.50
2022-09-07T23:28:53.727Z,25.50
2022-09-07T23:31:21.767Z,25.50
2022-09-07T23:33:49.028Z,25.50
2022-09-07T23:36:17.448Z,25.50
2022-09-07T23:38:45.526Z,25.50
2022-09-07T23:41:14.306Z,25.50
2022-09-07T23:43:41.411Z,25.40
2022-09-07T23:46:09.608Z,25.40
2022-09-07T23:48:36.769Z,25.40
2022-09-07T23:51:03.982Z,25.40
2022-09-07T23:53:31.006Z,25.40
2022-09-07T23:55:58.061Z,25.40
2022-09-07T23:58:25.155Z,25.40
